createdAt,value
2023-05-19T00:01:52.569Z,3.65
2023-05-19T00:04:19.485Z,3.67
2023-05-19T00:06:51.046Z,4.25
2023-05-19T00:09:17.909Z,4.05
2023-05-19T00:11:44.809Z,3.63
2023-05-19T00:14:11.637Z,3.58
2023-05-19T00:16:38.905Z,3.72
2023-05-19T00:19:06.724Z,3.92
2023-05-19T00:21:33.434Z,3.85
2023-05-19T00:24:00.113Z,4.57
2023-05-19T00:26:27.634Z,4.15
2023-05-19T00:28:54.482Z,4.97
2023-05-19T00:31:21.084Z,5.28
2023-05-19T00:33:47.693Z,4.28
2023-05-19T00:36:14.309Z,4.25
2023-05-19T00:38:40.976Z,5.28
2023-05-19T00:41:07.679Z,3.88
2023-05-19T00:43:34.728Z,4.63
2023-05-19T00:46:01.896Z,4.32
2023-05-19T00:48:28.597Z,4.97
2023-05-19T00:51:02.442Z,4.10
2023-05-19T00:53:29.625Z,4.40
2023-05-19T00:55:56.526Z,4.22
2023-05-19T00:58:25.689Z,4.72
2023-05-19T01:00:52.965Z,4.40
2023-05-19T01:03:20.764Z,4.18
2023-05-19T01:05:49.846Z,4.13
2023-05-19T01:08:16.526Z,4.55
2023-05-19T01:10:43.183Z,3.90
2023-05-19T01:13:10.126Z,3.78
2023-05-19T01:15:55.785Z,3.45
2023-05-19T01:18:31.765Z,3.92
2023-05-19T01:21:16.085Z,4.00
2023-05-19T01:31:38.585Z,4.30
2023-05-19T01:34:06.537Z,4.75
2023-05-19T01:36:33.907Z,4.70
2023-05-19T01:39:02.497Z,3.83
2023-05-19T01:41:30.789Z,4.07
2023-05-19T01:43:58.332Z,4.05
2023-05-19T01:46:25.485Z,4.25
2023-05-19T01:48:52.765Z,4.05
2023-05-19T01:51:19.354Z,4.28
2023-05-19T01:53:46.036Z,4.35
2023-05-19T01:56:21.979Z,3.80
2023-05-19T01:58:58.318Z,4.10
2023-05-19T02:07:09.072Z,3.47
2023-05-19T02:10:14.706Z,3.10
2023-05-19T02:12:41.718Z,3.67
2023-05-19T02:15:16.263Z,4.18
2023-05-19T02:17:48.340Z,3.90
2023-05-19T02:20:16.576Z,3.05
2023-05-19T02:22:43.352Z,3.50
2023-05-19T02:25:10.990Z,3.22
2023-05-19T02:27:38.885Z,3.80
2023-05-19T02:30:06.824Z,3.50
2023-05-19T02:32:33.615Z,3.25
2023-05-19T02:35:00.370Z,3.78
2023-05-19T02:37:28.669Z,3.80
2023-05-19T02:39:55.609Z,4.15
2023-05-19T02:42:22.239Z,3.83
2023-05-19T02:44:49.360Z,3.13
2023-05-19T02:47:16.135Z,4.55
2023-05-19T02:49:44.227Z,3.40
2023-05-19T02:52:12.145Z,3.53
2023-05-19T02:54:38.826Z,3.67
2023-05-19T02:57:05.915Z,4.20
2023-05-19T02:59:32.496Z,4.18
2023-05-19T03:02:01.793Z,4.10
2023-05-19T03:04:29.709Z,3.95
2023-05-19T03:06:57.720Z,2.88
2023-05-19T03:09:24.453Z,3.67
2023-05-19T03:11:51.081Z,3.50
2023-05-19T03:14:18.718Z,4.22
2023-05-19T03:16:45.581Z,3.47
2023-05-19T03:19:12.609Z,3.47
2023-05-19T03:21:39.394Z,3.63
2023-05-19T03:24:06.754Z,3.70
2023-05-19T03:26:33.349Z,3.08
2023-05-19T03:28:59.920Z,4.00
2023-05-19T03:31:26.892Z,4.13
2023-05-19T03:33:53.553Z,3.63
2023-05-19T03:36:20.254Z,4.05
2023-05-19T03:38:46.828Z,3.20
2023-05-19T03:41:13.421Z,3.58
2023-05-19T03:43:40.013Z,3.30
2023-05-19T03:46:06.706Z,3.70
2023-05-19T03:48:33.337Z,3.75
2023-05-19T03:51:00.163Z,4.22
2023-05-19T03:53:26.720Z,4.00
2023-05-19T03:55:53.318Z,3.90
2023-05-19T03:58:19.962Z,3.70
2023-05-19T04:00:46.597Z,4.15
2023-05-19T04:03:13.282Z,3.50
2023-05-19T04:05:39.965Z,3.70
2023-05-19T04:08:06.620Z,4.40
2023-05-19T04:10:33.643Z,4.13
2023-05-19T04:13:00.705Z,3.70
2023-05-19T04:15:27.410Z,4.47
2023-05-19T04:17:54.138Z,3.95
2023-05-19T04:20:20.825Z,3.97
2023-05-19T04:22:47.429Z,3.55
2023-05-19T04:25:14.133Z,5.25
2023-05-19T04:27:40.995Z,3.65
2023-05-19T04:30:08.391Z,3.63
2023-05-19T04:32:37.560Z,4.22
2023-05-19T04:35:04.826Z,3.58
2023-05-19T04:37:31.608Z,3.65
2023-05-19T04:39:58.201Z,3.63
2023-05-19T04:42:26.292Z,4.13
2023-05-19T04:44:53.062Z,3.70
2023-05-19T04:47:21.530Z,3.85
2023-05-19T04:49:48.321Z,4.20
2023-05-19T04:52:15.984Z,4.75
2023-05-19T04:54:42.593Z,4.70
2023-05-19T04:57:10.525Z,4.32
2023-05-19T04:59:37.107Z,3.88
2023-05-19T05:02:04.557Z,4.05
2023-05-19T05:04:31.183Z,3.90
2023-05-19T05:06:57.718Z,3.80
2023-05-19T05:09:24.376Z,4.47
2023-05-19T05:11:51.642Z,4.18
2023-05-19T05:14:18.563Z,3.83
2023-05-19T05:16:45.794Z,3.50
2023-05-19T05:19:12.819Z,4.47
2023-05-19T05:21:39.838Z,4.07
2023-05-19T05:24:06.882Z,4.00
2023-05-19T05:26:33.856Z,4.45
2023-05-19T05:29:00.517Z,4.28
2023-05-19T05:31:27.159Z,4.25
2023-05-19T05:33:53.762Z,4.32
2023-05-19T05:36:20.654Z,4.55
2023-05-19T05:38:47.248Z,4.28
2023-05-19T05:41:13.808Z,3.72
2023-05-19T05:43:40.490Z,3.42
2023-05-19T05:46:07.119Z,4.13
2023-05-19T05:48:34.179Z,4.30
2023-05-19T05:51:01.054Z,4.25
2023-05-19T05:53:32.168Z,4.28
2023-05-19T05:55:59.205Z,4.75
2023-05-19T05:58:25.922Z,3.88
2023-05-19T06:00:53.479Z,3.63
2023-05-19T06:03:24.275Z,3.47
2023-05-19T06:05:51.090Z,4.55
2023-05-19T06:08:17.952Z,4.35
2023-05-19T06:10:47.184Z,4.32
2023-05-19T06:13:16.345Z,3.83
2023-05-19T06:15:43.446Z,4.25
2023-05-19T06:18:10.542Z,4.25
2023-05-19T06:20:37.334Z,4.13
2023-05-19T06:23:04.277Z,3.53
2023-05-19T06:25:31.038Z,3.80
2023-05-19T06:27:57.924Z,3.95
2023-05-19T06:30:24.779Z,4.63
2023-05-19T06:32:51.592Z,3.90
2023-05-19T06:35:18.210Z,4.95
2023-05-19T06:37:44.844Z,4.22
2023-05-19T06:40:12.132Z,4.35
2023-05-19T06:42:38.752Z,4.55
2023-05-19T06:45:06.106Z,4.45
2023-05-19T06:47:32.742Z,4.30
2023-05-19T06:49:59.313Z,4.18
2023-05-19T06:52:25.883Z,4.65
2023-05-19T06:54:52.500Z,4.57
2023-05-19T06:57:19.154Z,5.40
2023-05-19T06:59:46.823Z,4.88
2023-05-19T07:02:13.874Z,5.47
2023-05-19T07:04:41.268Z,4.47
2023-05-19T07:07:08.077Z,4.38
2023-05-19T07:09:35.086Z,5.18
2023-05-19T07:12:01.923Z,4.30
2023-05-19T07:14:29.853Z,4.43
2023-05-19T07:16:56.513Z,4.63
2023-05-19T07:19:24.238Z,4.95
2023-05-19T07:21:51.024Z,4.68
2023-05-19T07:24:17.766Z,3.95
2023-05-19T07:26:44.608Z,4.95
2023-05-19T07:29:11.351Z,4.82
2023-05-19T07:31:38.269Z,4.32
2023-05-19T07:34:05.316Z,5.15
2023-05-19T07:36:31.912Z,5.38
2023-05-19T07:38:58.864Z,4.55
2023-05-19T07:41:26.494Z,5.25
2023-05-19T07:43:53.261Z,4.15
2023-05-19T07:46:20.639Z,5.10
2023-05-19T07:48:47.479Z,5.15
2023-05-19T07:51:14.577Z,5.22
2023-05-19T07:53:41.538Z,5.45
2023-05-19T07:56:08.202Z,4.82
2023-05-19T07:58:34.947Z,4.53
2023-05-19T08:01:01.718Z,4.75
2023-05-19T08:03:29.454Z,4.53
2023-05-19T08:05:56.438Z,5.22
2023-05-19T08:08:23.302Z,4.50
2023-05-19T08:10:50.162Z,4.80
2023-05-19T08:13:16.826Z,5.00
2023-05-19T08:15:43.580Z,4.75
2023-05-19T08:18:10.569Z,4.78
2023-05-19T08:20:37.783Z,5.05
2023-05-19T08:23:04.596Z,4.65
2023-05-19T08:25:40.912Z,4.90
2023-05-19T08:28:07.660Z,5.60
2023-05-19T08:30:34.558Z,4.78
2023-05-19T08:33:02.576Z,4.45
2023-05-19T08:35:29.236Z,5.75
2023-05-19T08:37:56.032Z,5.00
2023-05-19T08:40:23.668Z,4.97
2023-05-19T08:42:50.828Z,4.75
2023-05-19T08:45:18.072Z,5.30
2023-05-19T08:47:46.333Z,5.30
2023-05-19T08:50:17.803Z,4.90
2023-05-19T08:58:03.623Z,6.80
2023-05-19T09:00:32.492Z,5.47
2023-05-19T09:03:16.945Z,5.90
2023-05-19T09:05:46.573Z,5.53
2023-05-19T09:08:13.581Z,5.53
2023-05-19T09:10:40.375Z,5.35
2023-05-19T09:13:07.316Z,5.57
2023-05-19T09:15:36.865Z,4.82
2023-05-19T09:20:40.312Z,5.78
2023-05-19T09:23:07.938Z,4.95
2023-05-19T09:25:34.923Z,4.75
2023-05-19T09:28:01.780Z,4.45
2023-05-19T09:30:28.359Z,4.32
2023-05-19T09:32:54.979Z,4.78
2023-05-19T09:35:21.690Z,4.75
2023-05-19T09:37:48.357Z,4.97
2023-05-19T09:40:16.080Z,4.45
2023-05-19T09:42:44.179Z,3.72
2023-05-19T09:45:11.577Z,4.68
2023-05-19T09:47:39.844Z,4.85
2023-05-19T09:50:08.900Z,4.53
2023-05-19T09:52:40.839Z,4.50
2023-05-19T09:55:11.080Z,4.80
2023-05-19T09:57:38.746Z,5.90
2023-05-19T10:00:14.684Z,4.65
2023-05-19T10:02:43.935Z,5.15
2023-05-19T10:05:17.382Z,5.72
2023-05-19T10:07:45.837Z,4.20
2023-05-19T10:10:14.129Z,4.80
2023-05-19T10:12:42.124Z,4.78
2023-05-19T10:15:11.442Z,5.15
2023-05-19T10:17:40.690Z,4.30
2023-05-19T10:20:11.135Z,4.68
2023-05-19T10:22:38.554Z,5.32
2023-05-19T10:25:07.149Z,5.78
2023-05-19T10:27:36.934Z,5.18
2023-05-19T10:30:11.558Z,4.93
2023-05-19T10:32:41.377Z,5.20
2023-05-19T10:40:33.235Z,3.47
2023-05-19T10:43:14.179Z,4.15
2023-05-19T10:45:48.360Z,3.20
2023-05-19T10:48:16.837Z,3.13
2023-05-19T10:50:45.784Z,3.97
2023-05-19T10:53:22.095Z,3.60
2023-05-19T11:01:24.841Z,3.50
2023-05-19T11:03:53.767Z,4.55
2023-05-19T11:06:24.448Z,3.65
2023-05-19T11:08:53.616Z,3.15
2023-05-19T11:11:21.195Z,2.97
2023-05-19T11:13:52.829Z,3.15
2023-05-19T11:16:26.413Z,3.42
2023-05-19T11:18:54.978Z,3.72
2023-05-19T11:21:21.746Z,3.70
2023-05-19T11:23:48.529Z,3.10
2023-05-19T11:26:16.541Z,4.20
2023-05-19T11:28:43.562Z,3.50
2023-05-19T11:31:11.056Z,3.53
2023-05-19T11:33:38.014Z,3.60
2023-05-19T11:36:05.162Z,4.57
2023-05-19T11:38:32.775Z,5.15
2023-05-19T11:41:00.818Z,5.82
2023-05-19T11:43:27.596Z,5.93
2023-05-19T11:45:55.222Z,5.70
2023-05-19T11:48:22.578Z,6.13
2023-05-19T11:50:50.209Z,6.82
2023-05-19T11:53:17.491Z,7.15
2023-05-19T11:55:47.489Z,7.07
2023-05-19T11:58:14.819Z,6.45
2023-05-19T12:00:43.453Z,6.75
2023-05-19T12:03:10.667Z,6.68
2023-05-19T12:05:43.586Z,6.72
2023-05-19T12:08:11.838Z,6.93
2023-05-19T12:10:38.984Z,6.30
2023-05-19T12:13:08.917Z,7.47
2023-05-19T12:15:35.984Z,5.97
2023-05-19T12:18:03.212Z,6.75
2023-05-19T12:20:35.769Z,6.13
2023-05-19T12:23:03.293Z,7.00
2023-05-19T12:25:30.487Z,6.30
2023-05-19T12:28:05.015Z,6.43
2023-05-19T12:30:33.092Z,5.90
2023-05-19T12:33:01.891Z,6.05
2023-05-19T12:35:30.317Z,6.15
2023-05-19T12:37:57.758Z,5.93
2023-05-19T12:40:24.412Z,6.97
2023-05-19T12:42:53.435Z,6.18
2023-05-19T12:45:23.243Z,6.53
2023-05-19T12:47:52.830Z,6.03
2023-05-19T12:52:52.013Z,5.90
2023-05-19T12:55:20.587Z,5.35
2023-05-19T12:57:57.985Z,6.45
2023-05-19T13:00:28.682Z,7.20
2023-05-19T13:03:05.221Z,6.88
2023-05-19T13:05:45.752Z,6.35
2023-05-19T13:08:14.744Z,5.68
2023-05-19T13:10:43.096Z,5.47
2023-05-19T13:13:10.382Z,5.45
2023-05-19T13:15:40.332Z,5.35
2023-05-19T13:18:09.117Z,6.07
2023-05-19T13:20:37.476Z,5.95
2023-05-19T13:23:04.937Z,5.65
2023-05-19T13:25:34.378Z,6.13
2023-05-19T13:28:04.021Z,5.93
2023-05-19T13:32:57.408Z,5.60
2023-05-19T13:35:24.147Z,5.22
2023-05-19T13:37:51.037Z,5.20
2023-05-19T13:40:18.077Z,4.90
2023-05-19T13:42:45.317Z,4.80
2023-05-19T13:45:12.506Z,4.20
2023-05-19T13:47:39.403Z,4.30
2023-05-19T13:50:06.556Z,5.15
2023-05-19T13:52:33.649Z,4.57
2023-05-19T13:55:00.339Z,4.97
2023-05-19T13:57:26.968Z,3.40
2023-05-19T14:00:02.437Z,3.83
2023-05-19T14:02:30.459Z,3.63
2023-05-19T14:04:57.599Z,3.58
2023-05-19T14:07:24.460Z,3.85
2023-05-19T14:09:52.459Z,3.70
2023-05-19T14:12:20.243Z,4.13
2023-05-19T14:14:50.217Z,4.22
2023-05-19T14:17:16.833Z,3.63
2023-05-19T14:19:43.443Z,3.65
2023-05-19T14:22:10.237Z,3.78
2023-05-19T14:24:37.220Z,4.78
2023-05-19T14:27:04.019Z,3.63
2023-05-19T14:29:31.325Z,3.47
2023-05-19T14:31:58.087Z,3.30
2023-05-19T14:34:24.820Z,3.92
2023-05-19T14:36:52.199Z,4.05
2023-05-19T14:39:18.891Z,3.92
2023-05-19T14:41:45.489Z,3.17
2023-05-19T14:44:12.054Z,3.22
2023-05-19T14:46:38.698Z,3.40
2023-05-19T14:49:06.560Z,3.60
2023-05-19T14:51:33.209Z,3.58
2023-05-19T14:54:00.584Z,3.78
2023-05-19T14:56:27.260Z,3.78
2023-05-19T14:58:53.980Z,3.65
2023-05-19T15:01:20.736Z,4.10
2023-05-19T15:03:47.384Z,3.72
2023-05-19T15:06:14.125Z,3.58
2023-05-19T15:08:41.548Z,4.05
2023-05-19T15:11:08.443Z,3.40
2023-05-19T15:13:35.050Z,3.22
2023-05-19T15:16:16.283Z,3.80
2023-05-19T15:18:43.892Z,3.78
2023-05-19T15:21:10.686Z,4.53
2023-05-19T15:23:37.267Z,3.95
2023-05-19T15:26:04.011Z,4.05
2023-05-19T15:28:30.713Z,3.75
2023-05-19T15:30:57.324Z,3.97
2023-05-19T15:33:23.959Z,3.30
2023-05-19T15:35:52.195Z,3.65
2023-05-19T15:38:19.686Z,3.83
2023-05-19T15:40:46.964Z,3.92
2023-05-19T15:43:13.866Z,3.13
2023-05-19T15:45:40.947Z,3.28
2023-05-19T15:48:08.108Z,3.55
2023-05-19T15:50:35.241Z,3.90
2023-05-19T15:53:02.255Z,3.97
2023-05-19T15:55:29.164Z,3.53
2023-05-19T15:57:55.834Z,3.20
2023-05-19T16:00:22.443Z,2.80
2023-05-19T16:02:49.167Z,3.25
2023-05-19T16:05:16.737Z,2.92
2023-05-19T16:07:43.330Z,3.15
2023-05-19T16:10:10.209Z,3.20
2023-05-19T16:12:37.058Z,3.20
2023-05-19T16:15:04.052Z,2.97
2023-05-19T16:17:30.720Z,2.47
2023-05-19T16:19:57.408Z,3.33
2023-05-19T16:22:24.952Z,3.15
2023-05-19T16:24:52.233Z,2.90
2023-05-19T16:27:19.138Z,2.95
2023-05-19T16:29:45.888Z,2.92
2023-05-19T16:32:13.101Z,3.13
2023-05-19T16:34:39.934Z,3.10
2023-05-19T16:37:06.596Z,2.97
2023-05-19T16:39:36.072Z,3.20
2023-05-19T16:42:03.744Z,3.22
2023-05-19T16:44:30.477Z,3.67
2023-05-19T16:46:57.163Z,3.00
2023-05-19T16:49:23.780Z,3.13
2023-05-19T16:51:50.433Z,3.50
2023-05-19T16:54:17.157Z,3.38
2023-05-19T16:56:43.837Z,3.72
2023-05-19T16:59:10.676Z,4.10
2023-05-19T17:01:37.383Z,4.18
2023-05-19T17:04:04.140Z,3.75
2023-05-19T17:06:31.302Z,4.38
2023-05-19T17:08:57.881Z,4.05
2023-05-19T17:11:24.507Z,4.13
2023-05-19T17:13:51.593Z,3.17
2023-05-19T17:16:18.419Z,3.92
2023-05-19T17:18:45.328Z,3.45
2023-05-19T17:21:12.176Z,3.60
2023-05-19T17:23:39.208Z,3.33
2023-05-19T17:26:05.960Z,3.00
2023-05-19T17:28:32.786Z,3.28
2023-05-19T17:30:59.737Z,3.45
2023-05-19T17:33:26.459Z,3.53
2023-05-19T17:35:53.202Z,3.63
2023-05-19T17:38:19.785Z,3.53
2023-05-19T17:40:46.957Z,3.47
2023-05-19T17:43:13.850Z,3.85
2023-05-19T17:45:40.547Z,3.92
2023-05-19T17:48:07.658Z,3.90
2023-05-19T17:50:34.958Z,3.50
2023-05-19T17:53:02.026Z,3.55
2023-05-19T17:55:32.230Z,3.70
2023-05-19T17:57:59.319Z,3.22
2023-05-19T18:00:26.677Z,3.92
2023-05-19T18:02:53.809Z,4.53
2023-05-19T18:05:20.966Z,5.60
2023-05-19T18:07:48.650Z,4.80
2023-05-19T18:10:16.488Z,4.60
2023-05-19T18:12:43.129Z,4.25
2023-05-19T18:15:10.132Z,4.75
2023-05-19T18:17:36.790Z,4.65
2023-05-19T18:20:03.641Z,4.25
2023-05-19T18:22:30.322Z,4.05
2023-05-19T18:24:57.676Z,3.72
2023-05-19T18:27:24.307Z,3.55
2023-05-19T18:29:50.989Z,5.00
2023-05-19T18:32:17.986Z,3.80
2023-05-19T18:34:44.596Z,3.35
2023-05-19T18:37:11.267Z,3.63
2023-05-19T18:39:37.871Z,4.18
2023-05-19T18:42:04.586Z,3.90
2023-05-19T18:44:31.209Z,4.53
2023-05-19T18:46:57.785Z,3.85
2023-05-19T18:49:25.092Z,4.03
2023-05-19T18:51:52.029Z,4.63
2023-05-19T18:54:20.394Z,3.72
2023-05-19T18:56:46.991Z,3.92
2023-05-19T18:59:13.737Z,4.40
2023-05-19T19:01:40.428Z,4.40
2023-05-19T19:04:07.144Z,4.75
2023-05-19T19:06:33.766Z,4.15
2023-05-19T19:09:00.305Z,4.13
2023-05-19T19:11:27.705Z,4.00
2023-05-19T19:13:56.375Z,5.80
2023-05-19T19:16:23.253Z,4.40
2023-05-19T19:18:50.404Z,4.95
2023-05-19T19:21:19.592Z,4.72
2023-05-19T19:23:46.179Z,5.40
2023-05-19T19:26:12.878Z,5.00
2023-05-19T19:28:39.486Z,5.63
2023-05-19T19:31:06.096Z,4.38
2023-05-19T19:33:32.860Z,4.90
2023-05-19T19:35:59.495Z,5.20
2023-05-19T19:38:26.246Z,5.18
2023-05-19T19:40:52.850Z,5.10
2023-05-19T19:43:19.521Z,4.70
2023-05-19T19:45:46.161Z,4.55
2023-05-19T19:48:12.923Z,4.43
2023-05-19T19:50:39.512Z,4.85
2023-05-19T19:53:06.849Z,4.53
2023-05-19T19:55:33.489Z,5.03
2023-05-19T19:58:00.116Z,4.47
2023-05-19T20:00:26.788Z,4.78
2023-05-19T20:03:03.668Z,5.18
2023-05-19T20:05:31.444Z,4.68
2023-05-19T20:07:58.017Z,4.50
2023-05-19T20:10:24.717Z,4.78
2023-05-19T20:12:51.928Z,4.35
2023-05-19T20:15:18.765Z,5.03
2023-05-19T20:17:45.988Z,4.53
2023-05-19T20:20:12.968Z,4.88
2023-05-19T20:22:39.560Z,4.65
2023-05-19T20:25:06.999Z,4.50
2023-05-19T20:27:33.768Z,4.80
2023-05-19T20:30:00.780Z,5.13
2023-05-19T20:32:27.746Z,4.65
2023-05-19T20:34:54.408Z,5.63
2023-05-19T20:37:22.243Z,4.28
2023-05-19T20:39:48.921Z,4.60
2023-05-19T20:42:15.582Z,5.30
2023-05-19T20:44:42.549Z,5.10
2023-05-19T20:47:09.246Z,5.15
2023-05-19T20:49:36.001Z,4.85
2023-05-19T20:52:02.653Z,4.15
2023-05-19T20:54:29.293Z,4.20
2023-05-19T20:56:56.040Z,4.30
2023-05-19T20:59:22.682Z,4.93
2023-05-19T21:01:49.329Z,5.07
2023-05-19T21:04:16.112Z,4.32
2023-05-19T21:06:42.809Z,4.75
2023-05-19T21:09:10.766Z,4.38
2023-05-19T21:11:37.493Z,4.38
2023-05-19T21:14:04.260Z,4.32
2023-05-19T21:16:32.008Z,4.55
2023-05-19T21:18:58.824Z,4.55
2023-05-19T21:21:26.162Z,4.15
2023-05-19T21:23:52.959Z,4.05
2023-05-19T21:26:19.557Z,4.03
2023-05-19T21:28:46.307Z,3.65
2023-05-19T21:31:12.919Z,4.20
2023-05-19T21:33:39.519Z,3.50
2023-05-19T21:36:06.414Z,3.42
2023-05-19T21:38:32.954Z,4.70
2023-05-19T21:40:59.684Z,4.47
2023-05-19T21:43:26.570Z,3.50
2023-05-19T21:45:53.141Z,4.10
2023-05-19T21:48:19.838Z,3.30
2023-05-19T21:50:46.500Z,3.55
2023-05-19T21:53:13.064Z,3.97
2023-05-19T21:55:39.673Z,4.15
2023-05-19T21:58:06.564Z,3.70
2023-05-19T22:00:33.493Z,3.20
2023-05-19T22:03:00.334Z,3.45
2023-05-19T22:05:29.614Z,3.40
2023-05-19T22:07:56.444Z,3.45
2023-05-19T22:10:23.203Z,3.75
2023-05-19T22:12:49.999Z,3.25
2023-05-19T22:15:16.605Z,3.67
2023-05-19T22:17:43.412Z,2.85
2023-05-19T22:20:10.590Z,3.33
2023-05-19T22:22:37.228Z,2.80
2023-05-19T22:25:04.094Z,2.70
2023-05-19T22:27:30.831Z,3.38
2023-05-19T22:29:59.680Z,3.38
2023-05-19T22:32:26.516Z,3.13
2023-05-19T22:34:53.151Z,2.85
2023-05-19T22:37:19.991Z,2.92
2023-05-19T22:39:46.602Z,3.25
2023-05-19T22:42:13.351Z,3.17
2023-05-19T22:44:40.049Z,3.35
2023-05-19T22:47:06.720Z,2.85
2023-05-19T22:49:33.322Z,3.25
2023-05-19T22:52:00.457Z,3.05
2023-05-19T22:54:27.145Z,2.97
2023-05-19T22:56:53.711Z,2.75
2023-05-19T22:59:21.596Z,3.20
2023-05-19T23:01:48.290Z,2.95
2023-05-19T23:04:15.308Z,3.58
2023-05-19T23:06:42.032Z,3.45
2023-05-19T23:09:08.711Z,3.28
2023-05-19T23:11:36.013Z,3.00
2023-05-19T23:14:02.717Z,2.80
2023-05-19T23:16:29.596Z,3.15
2023-05-19T23:18:56.349Z,2.70
2023-05-19T23:21:23.104Z,3.33
2023-05-19T23:23:50.068Z,3.55
2023-05-19T23:26:16.675Z,3.20
2023-05-19T23:28:43.857Z,3.45
2023-05-19T23:31:10.594Z,3.33
2023-05-19T23:33:37.312Z,2.35
2023-05-19T23:36:07.694Z,3.47
2023-05-19T23:38:34.940Z,3.13
2023-05-19T23:41:01.917Z,3.38
2023-05-19T23:43:28.823Z,4.03
2023-05-19T23:45:55.538Z,3.65
2023-05-19T23:48:22.115Z,3.30
2023-05-19T23:50:48.751Z,3.65
2023-05-19T23:53:15.405Z,3.13
2023-05-19T23:55:42.344Z,3.65
2023-05-19T23:58:08.932Z,3.88
